Terminal Aerodrome Forecast
Issued by NWS Charleston, WV

Current Version | Previous Version | Text Only | Print | Product List | Glossary Off
Versions: 1 2 3 4 5 6 7 8 9 10 11 12 13 14 15 16 17 18 19 20 21 22 23 24

000
FTUS41 KRLX 210700 AAA
TAFPKB
TAF AMD
KPKB 210750Z 2108/2206 00000KT 1/4SM FG VV001
     FM211200 00000KT 1SM BR BKN001 OVC090
     FM211230 00000KT 3SM BR SCT003
     FM211330 00000KT P6SM FEW003 SCT070
     FM211500 00000KT P6SM BKN250
     FM220300 00000KT 6SM BR SCT250=

USA.gov is the U.S. government's official web portal to all federal, state and local government web resources and services.